Flight Track Log - Related Links

Times and Time Zones

All times are in EDT time to prevent confusion due to time zone crossing. See the FLG3688 flight status page for this flight to view local times or setup timezone preferences in your user account.

Time Position Orientation Groundspeed Altitude Reporting Facility
EDT Latitude Longitude Course Direction KTS MPH feet Rate Location/Type
Mon 11:51:26 AM 42.1994 -83.3717 196° South 171 197 1,400  Level Cleveland Center
Mon 11:52:10 AM 42.1683 -83.3839 196° South 178 205 2,700 1,973 Climbing Cleveland Center
Mon 11:52:39 AM 42.1369 -83.3939 193° South 222 255 3,800 1,839 Climbing Cleveland Center
Mon 11:53:12 AM 42.1056 -83.4047 194° South 218 251 4,600 2,084 Climbing Cleveland Center
Mon 11:54:14 AM 42.0347 -83.4258 192° South 259 298 7,100 2,565 Climbing Cleveland Center
Mon 11:55:16 AM 41.9597 -83.4569 197° South 276 318 9,900 2,098 Climbing Cleveland Center
Mon 11:56:17 AM 41.8789 -83.4892 197° South 293 337 11,400 1,707 Climbing Cleveland Center
Mon 11:57:19 AM 41.7853 -83.5275 197° South 343 395 13,400 2,081 Climbing Cleveland Center
Mon 11:58:21 AM 41.6747 -83.5853 201° Southwest 358 412 15,700 1,935 Climbing Cleveland Center
Mon 11:59:23 AM 41.5808 -83.6475 206° Southwest 373 429 17,400 1,597 Climbing Cleveland Center
Mon 12:00:25 PM 41.4853 -83.7136 207° Southwest 383 441 19,000 1,645 Climbing Cleveland Center
Mon 12:01:27 PM 41.3872 -83.7775 206° Southwest 391 450 20,800 1,756 Climbing Cleveland Center
Mon 12:02:28 PM 41.2906 -83.8436 207° Southwest 391 450 22,600 1,756 Climbing Cleveland Center
Mon 12:03:30 PM 41.1892 -83.9092 206° Southwest 390 449 24,400 1,846 Climbing Cleveland Center
Mon 12:04:25 PM 41.0947 -83.9722 207° Southwest 390 449 26,200 1,603 Climbing Indianapolis Center
Mon 12:05:26 PM 41.0053 -84.0308 206° Southwest 387 445 27,500 1,268 Climbing Indianapolis Center
Mon 12:06:28 PM 40.9083 -84.0956 207° Southwest 387 445 28,800 1,113 Climbing Indianapolis Center
Mon 12:07:30 PM 40.8094 -84.1611 207° Southwest 393 452 29,800 1,065 Climbing Indianapolis Center
Mon 12:08:32 PM 40.6897 -84.2383 206° Southwest 397 457 31,000 1,016 Climbing Indianapolis Center
Mon 12:09:34 PM 40.5881 -84.3061 207° Southwest 406 467 31,900 488 Climbing Indianapolis Center
Mon 12:10:35 PM 40.4847 -84.3728 206° Southwest 412 474 32,000 49 Climbing Indianapolis Center
Mon 12:11:37 PM 40.3750 -84.4436 206° Southwest 431 496 32,000  Level Indianapolis Center
Mon 12:12:39 PM 40.2611 -84.5172 206° Southwest 450 518 32,000  Level Indianapolis Center
Mon 12:13:41 PM 40.1447 -84.5917 206° Southwest 462 532 32,000  Level Indianapolis Center
Mon 12:14:43 PM 40.0039 -84.6819 206° Southwest 467 537 32,000  Level Indianapolis Center
Mon 12:15:44 PM 39.8861 -84.7569 206° Southwest 469 540 32,000  Level Indianapolis Center
Mon 12:16:46 PM 39.7711 -84.8333 207° Southwest 469 540 32,000  Level Indianapolis Center
Mon 12:17:48 PM 39.6767 -84.9658 227° Southwest 459 528 32,000  Level Indianapolis Center
Mon 12:18:50 PM 39.6008 -85.0950 233° Southwest 455 524 32,000  Level Indianapolis Center
Mon 12:19:51 PM 39.5239 -85.2222 232° Southwest 451 519 32,000  Level Indianapolis Center
Mon 12:20:53 PM 39.4464 -85.3508 232° Southwest 451 519 32,000  Level Indianapolis Center
Mon 12:21:55 PM 39.3681 -85.4786 232° Southwest 451 519 32,000  Level Indianapolis Center
Mon 12:22:57 PM 39.2900 -85.6064 232° Southwest 451 519 32,000  Level Indianapolis Center
Mon 12:23:59 PM 39.2117 -85.7347 232° Southwest 451 519 32,000  Level Indianapolis Center
Mon 12:25:00 PM 39.1333 -85.8636 232° Southwest 451 519 32,000  Level Indianapolis Center
Mon 12:26:02 PM 39.0392 -86.0142 231° Southwest 451 519 32,000  Level Indianapolis Center
Mon 12:27:04 PM 38.9608 -86.1428 232° Southwest 452 520 32,000  Level Indianapolis Center
Mon 12:28:06 PM 38.8792 -86.2731 231° Southwest 452 520 32,000  Level Indianapolis Center
Mon 12:29:08 PM 38.8006 -86.3992 231° Southwest 452 520 32,000  Level Indianapolis Center
Mon 12:30:10 PM 38.7219 -86.5253 231° Southwest 452 520 32,000  Level Indianapolis Center
Mon 12:31:12 PM 38.6417 -86.6514 231° Southwest 452 520 32,000  Level Indianapolis Center
Mon 12:32:14 PM 38.5622 -86.7775 231° Southwest 453 521 32,000  Level Indianapolis Center
Mon 12:33:15 PM 38.4828 -86.9028 231° Southwest 453 521 32,000  Level Indianapolis Center
Mon 12:34:17 PM 38.3906 -87.0469 231° Southwest 453 521 32,000  Level Indianapolis Center
Mon 12:35:19 PM 38.3108 -87.1711 231° Southwest 453 521 32,000  Level Indianapolis Center
Mon 12:36:21 PM 38.2333 -87.2936 231° Southwest 453 521 32,000  Level Indianapolis Center
Mon 12:37:23 PM 38.1531 -87.4175 231° Southwest 453 521 32,000  Level Indianapolis Center
Mon 12:38:25 PM 38.0733 -87.5397 230° Southwest 453 521 32,000  Level Indianapolis Center
Mon 12:39:27 PM 37.9781 -87.6872 231° Southwest 452 520 32,000  Level Indianapolis Center
Mon 12:40:29 PM 37.8822 -87.7903 220° Southwest 454 522 32,000  Level Indianapolis Center
Mon 12:41:31 PM 37.7675 -87.8631 207° Southwest 457 526 32,000  Level Indianapolis Center
Mon 12:42:33 PM 37.6531 -87.9328 206° Southwest 458 527 32,000  Level Indianapolis Center
Mon 12:43:35 PM 37.5367 -88.0036 206° Southwest 459 528 32,000  Level Indianapolis Center
Mon 12:44:37 PM 37.4211 -88.0747 206° Southwest 459 528 32,000  Level Indianapolis Center
Mon 12:45:13 PM 37.3431 -88.1200 205° Southwest 459 528 32,000  Level Memphis Center
Mon 12:46:15 PM 37.2272 -88.1906 206° Southwest 459 528 32,000  Level Memphis Center
Mon 12:47:17 PM 37.1117 -88.2597 206° Southwest 459 528 32,000  Level Memphis Center
Mon 12:48:19 PM 36.9947 -88.3306 206° Southwest 459 528 32,000  Level Memphis Center
Mon 12:49:21 PM 36.8592 -88.4108 205° Southwest 459 528 32,000  Level Memphis Center
Mon 12:50:23 PM 36.7428 -88.4803 206° Southwest 460 529 32,000  Level Memphis Center
Mon 12:51:25 PM 36.6269 -88.5494 206° Southwest 459 528 32,000  Level Memphis Center
Mon 12:52:27 PM 36.5097 -88.6186 205° Southwest 460 529 32,000  Level Memphis Center
Mon 12:53:29 PM 36.3931 -88.6867 205° Southwest 460 529 32,000 -726 Level Memphis Center
Mon 12:54:31 PM 36.2747 -88.7558 205° Southwest 461 531 30,500 -2,226 Descending Memphis Center
Mon 12:55:33 PM 36.1444 -88.8325 205° Southwest 447 514 27,400 -2,544 Descending Memphis Center
Mon 12:56:36 PM 36.0425 -88.8906 205° Southwest 416 479 25,200 -2,016 Descending Memphis Center
Mon 12:57:38 PM 35.9442 -88.9486 206° Southwest 397 457 23,200 -1,935 Descending Memphis Center
Mon 12:58:40 PM 35.8494 -89.0025 205° Southwest 382 440 21,200 -1,935 Descending Memphis Center
Mon 12:59:42 PM 35.7589 -89.0561 206° Southwest 367 422 19,200 -2,323 Descending Memphis Center
Mon 01:01:46 PM 35.6036 -89.2356 223° Southwest 351 404 14,000 -2,387 Descending Memphis Center
Mon 01:02:48 PM 35.5469 -89.3181 230° Southwest 326 375 11,800 -1,887 Descending Memphis Center
Mon 01:03:50 PM 35.4961 -89.3958 231° Southwest 304 350 10,100 -1,306 Descending Memphis Center
Mon 01:04:52 PM 35.4606 -89.4647 238° Southwest 254 292 9,100 -1,065 Descending Memphis Center
Mon 01:05:54 PM 35.4308 -89.5331 242° Southwest 234 269 7,900 -1,161 Descending Memphis Center
Mon 01:06:56 PM 35.4025 -89.6031 244° Southwest 233 268 6,700 -1,258 Descending Memphis Center
Mon 01:07:58 PM 35.3572 -89.6772 233° Southwest 233 268 5,300 -871 Descending Memphis Center
Mon 01:09:00 PM 35.3153 -89.7339 228° Southwest 231 266 4,900 -532 Descending Memphis Center
Mon 01:10:02 PM 35.2733 -89.7939 229° Southwest 230 265 4,200 -624 Descending Memphis Center
Mon 01:11:05 PM 35.2306 -89.8553 230° Southwest 232 267 3,600 -683 Descending Memphis Center
Mon 01:12:05 PM 35.1833 -89.9333 234° Southwest 240 276 2,800 -750 Descending KMEM
Mon 01:13:05 PM 35.1333 -89.9667 209° Southwest 208 239 2,100 -800 Descending KMEM
Mon 01:14:05 PM 35.1000 -89.9667 180° South 125 144 1,200 -900 Descending KMEM
Mon 01:17:00 PM 35.0424 -89.9767 231° Southwest  Level Estimated

Login

Don't have an account? Register now (free) for customized features, flight alerts, and more!